sensor_id;sensor_type;location;lat;lon;timestamp;P1;durP1;ratioP1;P2;durP2;ratioP2
59042;SDS011;44826;51.596;5.624;2023-07-02T00:02:23;9.10;;;4.60;;
59042;SDS011;44826;51.596;5.624;2023-07-02T00:04:49;7.78;;;4.10;;
59042;SDS011;44826;51.596;5.624;2023-07-02T00:07:14;9.57;;;4.05;;
59042;SDS011;44826;51.596;5.624;2023-07-02T00:09:39;8.32;;;4.22;;
59042;SDS011;44826;51.596;5.624;2023-07-02T00:12:05;8.13;;;4.03;;
59042;SDS011;44826;51.596;5.624;2023-07-02T00:14:31;9.25;;;4.20;;
59042;SDS011;44826;51.596;5.624;2023-07-02T00:16:56;8.45;;;4.32;;
59042;SDS011;44826;51.596;5.624;2023-07-02T00:19:21;11.15;;;4.63;;
59042;SDS011;44826;51.596;5.624;2023-07-02T00:21:47;7.40;;;3.97;;
59042;SDS011;44826;51.596;5.624;2023-07-02T00:24:13;7.70;;;4.07;;
59042;SDS011;44826;51.596;5.624;2023-07-02T00:26:38;10.13;;;4.30;;
59042;SDS011;44826;51.596;5.624;2023-07-02T00:29:05;11.05;;;4.90;;
59042;SDS011;44826;51.596;5.624;2023-07-02T00:31:31;8.55;;;4.38;;
59042;SDS011;44826;51.596;5.624;2023-07-02T00:33:57;10.63;;;4.88;;
59042;SDS011;44826;51.596;5.624;2023-07-02T00:36:22;8.80;;;5.07;;
59042;SDS011;44826;51.596;5.624;2023-07-02T00:38:48;10.40;;;4.88;;
59042;SDS011;44826;51.596;5.624;2023-07-02T00:41:14;10.00;;;4.97;;
59042;SDS011;44826;51.596;5.624;2023-07-02T00:43:39;11.68;;;5.13;;
59042;SDS011;44826;51.596;5.624;2023-07-02T00:46:09;10.65;;;5.22;;
59042;SDS011;44826;51.596;5.624;2023-07-02T00:48:42;10.23;;;4.85;;
59042;SDS011;44826;51.596;5.624;2023-07-02T00:51:08;11.60;;;5.22;;
59042;SDS011;44826;51.596;5.624;2023-07-02T00:53:34;11.38;;;5.40;;
59042;SDS011;44826;51.596;5.624;2023-07-02T00:56:00;10.73;;;5.88;;
59042;SDS011;44826;51.596;5.624;2023-07-02T00:58:25;11.15;;;5.50;;
59042;SDS011;44826;51.596;5.624;2023-07-02T01:00:50;12.80;;;5.80;;
59042;SDS011;44826;51.596;5.624;2023-07-02T01:03:16;11.88;;;5.55;;
59042;SDS011;44826;51.596;5.624;2023-07-02T01:05:41;13.35;;;5.78;;
59042;SDS011;44826;51.596;5.624;2023-07-02T01:08:06;12.77;;;5.90;;
59042;SDS011;44826;51.596;5.624;2023-07-02T01:10:32;12.80;;;5.80;;
59042;SDS011;44826;51.596;5.624;2023-07-02T01:13:00;11.82;;;5.80;;
59042;SDS011;44826;51.596;5.624;2023-07-02T01:15:30;13.63;;;6.63;;
59042;SDS011;44826;51.596;5.624;2023-07-02T01:17:57;14.32;;;6.07;;
59042;SDS011;44826;51.596;5.624;2023-07-02T01:20:22;13.10;;;6.32;;
59042;SDS011;44826;51.596;5.624;2023-07-02T01:22:50;14.57;;;6.15;;
59042;SDS011;44826;51.596;5.624;2023-07-02T01:25:16;14.82;;;6.90;;
59042;SDS011;44826;51.596;5.624;2023-07-02T01:27:42;12.30;;;6.53;;
59042;SDS011;44826;51.596;5.624;2023-07-02T01:30:08;14.98;;;7.05;;
59042;SDS011;44826;51.596;5.624;2023-07-02T01:32:34;15.27;;;6.85;;
59042;SDS011;44826;51.596;5.624;2023-07-02T01:35:00;14.05;;;7.05;;
59042;SDS011;44826;51.596;5.624;2023-07-02T01:37:26;18.83;;;7.43;;
59042;SDS011;44826;51.596;5.624;2023-07-02T01:39:51;15.30;;;7.32;;
59042;SDS011;44826;51.596;5.624;2023-07-02T01:42:19;16.77;;;7.90;;
59042;SDS011;44826;51.596;5.624;2023-07-02T01:44:48;15.23;;;7.63;;
59042;SDS011;44826;51.596;5.624;2023-07-02T01:47:16;15.63;;;7.53;;
59042;SDS011;44826;51.596;5.624;2023-07-02T01:49:41;14.57;;;7.78;;
59042;SDS011;44826;51.596;5.624;2023-07-02T01:52:07;15.02;;;8.13;;
59042;SDS011;44826;51.596;5.624;2023-07-02T01:54:32;15.00;;;7.72;;
59042;SDS011;44826;51.596;5.624;2023-07-02T01:56:58;16.35;;;8.25;;
59042;SDS011;44826;51.596;5.624;2023-07-02T01:59:24;15.82;;;7.72;;
59042;SDS011;44826;51.596;5.624;2023-07-02T02:01:50;15.85;;;8.02;;
59042;SDS011;44826;51.596;5.624;2023-07-02T02:04:15;17.13;;;7.82;;
59042;SDS011;44826;51.596;5.624;2023-07-02T02:06:41;16.40;;;8.13;;
59042;SDS011;44826;51.596;5.624;2023-07-02T02:09:07;15.50;;;8.50;;
59042;SDS011;44826;51.596;5.624;2023-07-02T02:11:34;17.80;;;8.55;;
59042;SDS011;44826;51.596;5.624;2023-07-02T02:14:02;15.60;;;8.23;;
59042;SDS011;44826;51.596;5.624;2023-07-02T02:16:27;16.02;;;7.97;;
59042;SDS011;44826;51.596;5.624;2023-07-02T02:18:52;16.52;;;8.30;;
59042;SDS011;44826;51.596;5.624;2023-07-02T02:21:19;19.55;;;8.50;;
59042;SDS011;44826;51.596;5.624;2023-07-02T02:23:44;19.05;;;8.90;;
59042;SDS011;44826;51.596;5.624;2023-07-02T02:26:10;17.65;;;8.32;;
59042;SDS011;44826;51.596;5.624;2023-07-02T02:28:35;18.65;;;8.95;;
59042;SDS011;44826;51.596;5.624;2023-07-02T02:31:01;19.63;;;8.90;;
59042;SDS011;44826;51.596;5.624;2023-07-02T02:33:26;17.85;;;8.60;;
59042;SDS011;44826;51.596;5.624;2023-07-02T02:35:51;18.13;;;8.48;;
59042;SDS011;44826;51.596;5.624;2023-07-02T02:38:16;18.40;;;8.73;;
59042;SDS011;44826;51.596;5.624;2023-07-02T02:40:42;17.35;;;8.50;;
59042;SDS011;44826;51.596;5.624;2023-07-02T02:43:07;18.33;;;8.60;;
59042;SDS011;44826;51.596;5.624;2023-07-02T02:45:32;20.48;;;8.90;;
59042;SDS011;44826;51.596;5.624;2023-07-02T02:47:57;17.83;;;8.85;;
59042;SDS011;44826;51.596;5.624;2023-07-02T02:50:23;15.90;;;8.23;;
59042;SDS011;44826;51.596;5.624;2023-07-02T02:52:48;22.52;;;9.07;;
59042;SDS011;44826;51.596;5.624;2023-07-02T02:55:13;18.70;;;9.10;;
59042;SDS011;44826;51.596;5.624;2023-07-02T02:57:39;18.88;;;9.02;;
59042;SDS011;44826;51.596;5.624;2023-07-02T03:00:04;19.33;;;8.75;;
59042;SDS011;44826;51.596;5.624;2023-07-02T03:02:31;17.52;;;9.23;;
59042;SDS011;44826;51.596;5.624;2023-07-02T03:04:56;18.50;;;8.90;;
59042;SDS011;44826;51.596;5.624;2023-07-02T03:07:22;17.17;;;8.65;;
59042;SDS011;44826;51.596;5.624;2023-07-02T03:09:47;18.15;;;9.00;;
59042;SDS011;44826;51.596;5.624;2023-07-02T03:12:12;20.08;;;9.20;;
59042;SDS011;44826;51.596;5.624;2023-07-02T03:14:38;18.05;;;8.95;;
59042;SDS011;44826;51.596;5.624;2023-07-02T03:17:03;17.77;;;9.13;;
59042;SDS011;44826;51.596;5.624;2023-07-02T03:19:29;19.30;;;9.52;;
59042;SDS011;44826;51.596;5.624;2023-07-02T03:21:54;20.65;;;9.48;;
59042;SDS011;44826;51.596;5.624;2023-07-02T03:24:19;18.98;;;8.93;;
59042;SDS011;44826;51.596;5.624;2023-07-02T03:26:44;20.13;;;8.70;;
59042;SDS011;44826;51.596;5.624;2023-07-02T03:29:10;18.08;;;8.90;;
59042;SDS011;44826;51.596;5.624;2023-07-02T03:31:36;19.35;;;9.38;;
59042;SDS011;44826;51.596;5.624;2023-07-02T03:34:02;19.38;;;9.48;;
59042;SDS011;44826;51.596;5.624;2023-07-02T03:36:31;19.38;;;8.82;;
59042;SDS011;44826;51.596;5.624;2023-07-02T03:38:56;17.98;;;9.07;;
59042;SDS011;44826;51.596;5.624;2023-07-02T03:41:22;18.17;;;8.30;;
59042;SDS011;44826;51.596;5.624;2023-07-02T03:43:47;18.67;;;8.73;;
59042;SDS011;44826;51.596;5.624;2023-07-02T03:46:13;19.02;;;8.60;;
59042;SDS011;44826;51.596;5.624;2023-07-02T03:48:38;19.35;;;9.48;;
59042;SDS011;44826;51.596;5.624;2023-07-02T03:51:04;18.15;;;8.90;;
59042;SDS011;44826;51.596;5.624;2023-07-02T03:53:29;16.95;;;8.45;;
59042;SDS011;44826;51.596;5.624;2023-07-02T03:55:54;20.52;;;8.57;;
59042;SDS011;44826;51.596;5.624;2023-07-02T03:58:20;17.88;;;8.40;;
59042;SDS011;44826;51.596;5.624;2023-07-02T04:00:45;16.33;;;8.48;;
59042;SDS011;44826;51.596;5.624;2023-07-02T04:03:10;18.35;;;9.02;;
59042;SDS011;44826;51.596;5.624;2023-07-02T04:05:35;19.20;;;8.75;;
59042;SDS011;44826;51.596;5.624;2023-07-02T04:08:01;20.05;;;8.65;;
59042;SDS011;44826;51.596;5.624;2023-07-02T04:10:26;17.13;;;8.75;;
59042;SDS011;44826;51.596;5.624;2023-07-02T04:12:51;17.75;;;8.88;;
59042;SDS011;44826;51.596;5.624;2023-07-02T04:15:16;18.02;;;8.73;;
59042;SDS011;44826;51.596;5.624;2023-07-02T04:17:42;19.40;;;9.73;;
59042;SDS011;44826;51.596;5.624;2023-07-02T04:20:07;20.83;;;9.68;;
59042;SDS011;44826;51.596;5.624;2023-07-02T04:22:33;18.15;;;9.73;;
59042;SDS011;44826;51.596;5.624;2023-07-02T04:24:58;20.23;;;9.55;;
59042;SDS011;44826;51.596;5.624;2023-07-02T04:27:24;16.88;;;9.50;;
59042;SDS011;44826;51.596;5.624;2023-07-02T04:29:49;20.63;;;9.77;;
59042;SDS011;44826;51.596;5.624;2023-07-02T04:32:14;19.15;;;9.32;;
59042;SDS011;44826;51.596;5.624;2023-07-02T04:34:40;18.95;;;9.48;;
59042;SDS011;44826;51.596;5.624;2023-07-02T04:37:06;17.02;;;9.52;;
59042;SDS011;44826;51.596;5.624;2023-07-02T04:39:31;18.38;;;8.90;;
59042;SDS011;44826;51.596;5.624;2023-07-02T04:41:57;18.23;;;9.85;;
59042;SDS011;44826;51.596;5.624;2023-07-02T04:44:22;21.25;;;8.52;;
59042;SDS011;44826;51.596;5.624;2023-07-02T04:47:00;18.10;;;9.02;;
59042;SDS011;44826;51.596;5.624;2023-07-02T04:49:27;18.92;;;8.90;;
59042;SDS011;44826;51.596;5.624;2023-07-02T04:51:52;18.27;;;9.20;;
59042;SDS011;44826;51.596;5.624;2023-07-02T04:54:19;17.75;;;9.43;;
59042;SDS011;44826;51.596;5.624;2023-07-02T04:56:47;19.23;;;8.70;;
59042;SDS011;44826;51.596;5.624;2023-07-02T04:59:13;16.45;;;9.18;;
59042;SDS011;44826;51.596;5.624;2023-07-02T05:01:38;17.60;;;8.77;;
59042;SDS011;44826;51.596;5.624;2023-07-02T05:04:05;20.60;;;8.98;;
59042;SDS011;44826;51.596;5.624;2023-07-02T05:06:30;18.55;;;8.80;;
59042;SDS011;44826;51.596;5.624;2023-07-02T05:08:56;15.73;;;8.00;;
59042;SDS011;44826;51.596;5.624;2023-07-02T05:11:21;15.68;;;7.03;;
59042;SDS011;44826;51.596;5.624;2023-07-02T05:13:46;16.65;;;7.55;;
59042;SDS011;44826;51.596;5.624;2023-07-02T05:16:11;12.90;;;7.05;;
59042;SDS011;44826;51.596;5.624;2023-07-02T05:18:37;14.98;;;7.15;;
59042;SDS011;44826;51.596;5.624;2023-07-02T05:21:02;14.75;;;6.38;;
59042;SDS011;44826;51.596;5.624;2023-07-02T05:23:27;14.30;;;6.05;;
59042;SDS011;44826;51.596;5.624;2023-07-02T05:25:53;12.27;;;6.10;;
59042;SDS011;44826;51.596;5.624;2023-07-02T05:28:18;14.75;;;6.18;;
59042;SDS011;44826;51.596;5.624;2023-07-02T05:30:43;13.75;;;5.88;;
59042;SDS011;44826;51.596;5.624;2023-07-02T05:33:08;14.63;;;5.53;;
59042;SDS011;44826;51.596;5.624;2023-07-02T05:35:34;12.95;;;5.70;;
59042;SDS011;44826;51.596;5.624;2023-07-02T05:37:59;11.13;;;5.50;;
59042;SDS011;44826;51.596;5.624;2023-07-02T05:40:25;11.60;;;5.75;;
59042;SDS011;44826;51.596;5.624;2023-07-02T05:42:50;14.73;;;5.40;;
59042;SDS011;44826;51.596;5.624;2023-07-02T05:45:15;13.32;;;5.57;;
59042;SDS011;44826;51.596;5.624;2023-07-02T05:47:41;13.07;;;5.65;;
59042;SDS011;44826;51.596;5.624;2023-07-02T05:50:07;13.68;;;5.57;;
59042;SDS011;44826;51.596;5.624;2023-07-02T05:52:33;11.70;;;5.38;;
59042;SDS011;44826;51.596;5.624;2023-07-02T05:54:59;16.20;;;5.78;;
59042;SDS011;44826;51.596;5.624;2023-07-02T05:57:24;14.75;;;5.97;;
59042;SDS011;44826;51.596;5.624;2023-07-02T05:59:49;12.70;;;5.25;;
59042;SDS011;44826;51.596;5.624;2023-07-02T06:02:14;13.00;;;6.05;;
59042;SDS011;44826;51.596;5.624;2023-07-02T06:04:40;14.00;;;5.68;;
59042;SDS011;44826;51.596;5.624;2023-07-02T06:07:05;13.25;;;5.82;;
59042;SDS011;44826;51.596;5.624;2023-07-02T06:09:30;14.23;;;5.75;;
59042;SDS011;44826;51.596;5.624;2023-07-02T06:11:57;12.00;;;5.78;;
59042;SDS011;44826;51.596;5.624;2023-07-02T06:14:23;12.60;;;5.45;;
59042;SDS011;44826;51.596;5.624;2023-07-02T06:16:50;14.60;;;5.93;;
59042;SDS011;44826;51.596;5.624;2023-07-02T06:19:16;14.18;;;4.88;;
59042;SDS011;44826;51.596;5.624;2023-07-02T06:21:41;12.63;;;5.82;;
59042;SDS011;44826;51.596;5.624;2023-07-02T06:24:06;11.48;;;5.20;;
59042;SDS011;44826;51.596;5.624;2023-07-02T06:26:31;13.48;;;5.68;;
59042;SDS011;44826;51.596;5.624;2023-07-02T06:28:57;12.75;;;5.53;;
59042;SDS011;44826;51.596;5.624;2023-07-02T06:31:23;12.15;;;4.93;;
59042;SDS011;44826;51.596;5.624;2023-07-02T06:33:48;12.27;;;5.20;;
59042;SDS011;44826;51.596;5.624;2023-07-02T06:36:14;11.73;;;5.13;;
59042;SDS011;44826;51.596;5.624;2023-07-02T06:38:39;11.60;;;4.63;;
59042;SDS011;44826;51.596;5.624;2023-07-02T06:41:05;11.65;;;5.28;;
59042;SDS011;44826;51.596;5.624;2023-07-02T06:43:30;9.75;;;4.78;;
59042;SDS011;44826;51.596;5.624;2023-07-02T06:45:55;13.88;;;5.22;;
59042;SDS011;44826;51.596;5.624;2023-07-02T06:48:21;11.60;;;4.72;;
59042;SDS011;44826;51.596;5.624;2023-07-02T06:50:46;13.48;;;4.60;;
59042;SDS011;44826;51.596;5.624;2023-07-02T06:53:12;10.18;;;4.88;;
59042;SDS011;44826;51.596;5.624;2023-07-02T06:55:37;10.77;;;4.25;;
59042;SDS011;44826;51.596;5.624;2023-07-02T06:58:04;12.32;;;4.55;;
59042;SDS011;44826;51.596;5.624;2023-07-02T07:00:33;12.20;;;4.75;;
59042;SDS011;44826;51.596;5.624;2023-07-02T07:03:01;10.13;;;4.38;;
59042;SDS011;44826;51.596;5.624;2023-07-02T07:05:27;11.02;;;4.28;;
59042;SDS011;44826;51.596;5.624;2023-07-02T07:07:53;12.05;;;4.45;;
59042;SDS011;44826;51.596;5.624;2023-07-02T07:10:19;9.90;;;4.22;;
59042;SDS011;44826;51.596;5.624;2023-07-02T07:12:45;12.32;;;4.63;;
59042;SDS011;44826;51.596;5.624;2023-07-02T07:15:10;14.55;;;5.10;;
59042;SDS011;44826;51.596;5.624;2023-07-02T07:17:36;11.32;;;4.57;;
59042;SDS011;44826;51.596;5.624;2023-07-02T07:20:01;11.35;;;4.45;;
59042;SDS011;44826;51.596;5.624;2023-07-02T07:22:29;9.80;;;4.03;;
59042;SDS011;44826;51.596;5.624;2023-07-02T07:24:55;10.50;;;4.10;;
59042;SDS011;44826;51.596;5.624;2023-07-02T07:27:20;13.23;;;5.00;;
59042;SDS011;44826;51.596;5.624;2023-07-02T07:29:45;8.82;;;3.70;;
59042;SDS011;44826;51.596;5.624;2023-07-02T07:32:10;8.40;;;3.92;;
59042;SDS011;44826;51.596;5.624;2023-07-02T07:34:36;9.73;;;4.00;;
59042;SDS011;44826;51.596;5.624;2023-07-02T07:37:01;10.43;;;3.88;;
59042;SDS011;44826;51.596;5.624;2023-07-02T07:39:26;11.85;;;4.30;;
59042;SDS011;44826;51.596;5.624;2023-07-02T07:41:51;9.05;;;4.13;;
59042;SDS011;44826;51.596;5.624;2023-07-02T07:44:17;9.00;;;4.30;;
59042;SDS011;44826;51.596;5.624;2023-07-02T07:46:42;10.23;;;4.30;;
59042;SDS011;44826;51.596;5.624;2023-07-02T07:49:07;10.38;;;4.05;;
59042;SDS011;44826;51.596;5.624;2023-07-02T07:51:33;8.63;;;3.55;;
59042;SDS011;44826;51.596;5.624;2023-07-02T07:54:00;10.90;;;4.45;;
59042;SDS011;44826;51.596;5.624;2023-07-02T07:56:26;13.43;;;4.18;;
59042;SDS011;44826;51.596;5.624;2023-07-02T07:58:51;9.15;;;4.10;;
59042;SDS011;44826;51.596;5.624;2023-07-02T08:01:16;9.20;;;4.20;;
59042;SDS011;44826;51.596;5.624;2023-07-02T08:03:41;10.60;;;4.22;;
59042;SDS011;44826;51.596;5.624;2023-07-02T08:06:07;10.35;;;3.80;;
59042;SDS011;44826;51.596;5.624;2023-07-02T08:08:32;10.00;;;3.92;;
59042;SDS011;44826;51.596;5.624;2023-07-02T08:10:57;9.80;;;3.85;;
59042;SDS011;44826;51.596;5.624;2023-07-02T08:13:25;9.70;;;4.07;;
59042;SDS011;44826;51.596;5.624;2023-07-02T08:15:51;12.50;;;3.58;;
59042;SDS011;44826;51.596;5.624;2023-07-02T08:18:16;10.88;;;3.95;;
59042;SDS011;44826;51.596;5.624;2023-07-02T08:20:41;9.75;;;3.63;;
59042;SDS011;44826;51.596;5.624;2023-07-02T08:23:06;7.80;;;3.80;;
59042;SDS011;44826;51.596;5.624;2023-07-02T08:25:32;9.10;;;3.95;;
59042;SDS011;44826;51.596;5.624;2023-07-02T08:27:57;7.88;;;3.60;;
59042;SDS011;44826;51.596;5.624;2023-07-02T08:30:23;10.88;;;3.85;;
59042;SDS011;44826;51.596;5.624;2023-07-02T08:32:48;8.32;;;3.38;;
59042;SDS011;44826;51.596;5.624;2023-07-02T08:35:13;9.15;;;3.63;;
59042;SDS011;44826;51.596;5.624;2023-07-02T08:37:39;6.45;;;3.53;;
59042;SDS011;44826;51.596;5.624;2023-07-02T08:40:04;8.40;;;3.30;;
59042;SDS011;44826;51.596;5.624;2023-07-02T08:42:31;7.72;;;3.58;;
59042;SDS011;44826;51.596;5.624;2023-07-02T08:44:58;8.05;;;3.40;;
59042;SDS011;44826;51.596;5.624;2023-07-02T08:47:25;10.85;;;3.40;;
59042;SDS011;44826;51.596;5.624;2023-07-02T08:49:50;8.73;;;3.58;;
59042;SDS011;44826;51.596;5.624;2023-07-02T08:52:16;8.80;;;3.85;;
59042;SDS011;44826;51.596;5.624;2023-07-02T08:54:41;9.65;;;3.50;;
59042;SDS011;44826;51.596;5.624;2023-07-02T08:57:08;8.00;;;4.03;;
59042;SDS011;44826;51.596;5.624;2023-07-02T08:59:35;10.82;;;3.78;;
59042;SDS011;44826;51.596;5.624;2023-07-02T09:02:01;10.63;;;3.60;;
59042;SDS011;44826;51.596;5.624;2023-07-02T09:04:26;9.25;;;3.63;;
59042;SDS011;44826;51.596;5.624;2023-07-02T09:07:06;8.75;;;3.88;;
59042;SDS011;44826;51.596;5.624;2023-07-02T09:09:33;11.68;;;4.03;;
59042;SDS011;44826;51.596;5.624;2023-07-02T09:12:09;10.50;;;4.10;;
59042;SDS011;44826;51.596;5.624;2023-07-02T09:14:34;7.97;;;3.55;;
59042;SDS011;44826;51.596;5.624;2023-07-02T09:19:33;10.20;;;3.65;;
59042;SDS011;44826;51.596;5.624;2023-07-02T09:21:59;9.80;;;3.45;;
59042;SDS011;44826;51.596;5.624;2023-07-02T09:24:28;9.85;;;3.78;;
59042;SDS011;44826;51.596;5.624;2023-07-02T09:26:55;7.05;;;3.50;;
59042;SDS011;44826;51.596;5.624;2023-07-02T09:31:57;7.60;;;3.80;;
59042;SDS011;44826;51.596;5.624;2023-07-02T09:34:30;11.38;;;4.00;;
59042;SDS011;44826;51.596;5.624;2023-07-02T09:36:57;8.90;;;4.07;;
59042;SDS011;44826;51.596;5.624;2023-07-02T09:39:27;9.20;;;3.83;;
59042;SDS011;44826;51.596;5.624;2023-07-02T09:41:54;16.23;;;4.55;;
59042;SDS011;44826;51.596;5.624;2023-07-02T09:44:28;8.60;;;3.78;;
59042;SDS011;44826;51.596;5.624;2023-07-02T09:49:31;9.77;;;4.10;;
59042;SDS011;44826;51.596;5.624;2023-07-02T09:52:17;7.65;;;3.67;;
59042;SDS011;44826;51.596;5.624;2023-07-02T09:54:44;12.60;;;3.85;;
59042;SDS011;44826;51.596;5.624;2023-07-02T09:57:09;10.88;;;4.35;;
59042;SDS011;44826;51.596;5.624;2023-07-02T09:59:35;8.45;;;4.05;;
59042;SDS011;44826;51.596;5.624;2023-07-02T10:02:01;7.97;;;3.42;;
59042;SDS011;44826;51.596;5.624;2023-07-02T10:04:26;9.02;;;3.83;;
59042;SDS011;44826;51.596;5.624;2023-07-02T10:06:54;8.70;;;3.78;;
59042;SDS011;44826;51.596;5.624;2023-07-02T10:09:21;9.10;;;3.78;;
59042;SDS011;44826;51.596;5.624;2023-07-02T10:12:00;8.75;;;3.97;;
59042;SDS011;44826;51.596;5.624;2023-07-02T10:14:25;9.02;;;3.53;;
59042;SDS011;44826;51.596;5.624;2023-07-02T10:16:51;9.23;;;3.70;;
59042;SDS011;44826;51.596;5.624;2023-07-02T10:19:17;12.70;;;4.40;;
59042;SDS011;44826;51.596;5.624;2023-07-02T10:21:43;8.75;;;3.33;;
59042;SDS011;44826;51.596;5.624;2023-07-02T10:24:12;8.20;;;3.45;;
59042;SDS011;44826;51.596;5.624;2023-07-02T10:26:39;10.43;;;4.18;;
59042;SDS011;44826;51.596;5.624;2023-07-02T10:29:06;8.57;;;3.80;;
59042;SDS011;44826;51.596;5.624;2023-07-02T10:31:31;8.00;;;3.53;;
59042;SDS011;44826;51.596;5.624;2023-07-02T10:33:56;8.77;;;3.72;;
59042;SDS011;44826;51.596;5.624;2023-07-02T10:36:22;12.52;;;3.83;;
59042;SDS011;44826;51.596;5.624;2023-07-02T10:38:49;7.95;;;3.58;;
59042;SDS011;44826;51.596;5.624;2023-07-02T10:41:28;11.80;;;3.80;;
59042;SDS011;44826;51.596;5.624;2023-07-02T10:43:54;8.52;;;3.55;;
59042;SDS011;44826;51.596;5.624;2023-07-02T10:46:29;7.97;;;3.78;;
59042;SDS011;44826;51.596;5.624;2023-07-02T10:48:55;8.68;;;3.58;;
59042;SDS011;44826;51.596;5.624;2023-07-02T10:51:21;7.47;;;3.83;;
59042;SDS011;44826;51.596;5.624;2023-07-02T10:54:02;10.80;;;3.67;;
59042;SDS011;44826;51.596;5.624;2023-07-02T10:56:29;8.65;;;3.92;;
59042;SDS011;44826;51.596;5.624;2023-07-02T10:58:55;10.70;;;4.18;;
59042;SDS011;44826;51.596;5.624;2023-07-02T11:01:24;12.15;;;3.90;;
59042;SDS011;44826;51.596;5.624;2023-07-02T11:06:23;9.65;;;4.50;;
59042;SDS011;44826;51.596;5.624;2023-07-02T11:08:48;10.40;;;4.20;;
59042;SDS011;44826;51.596;5.624;2023-07-02T11:11:14;10.07;;;4.32;;
59042;SDS011;44826;51.596;5.624;2023-07-02T11:13:45;10.45;;;4.22;;
59042;SDS011;44826;51.596;5.624;2023-07-02T11:18:54;10.57;;;4.18;;
59042;SDS011;44826;51.596;5.624;2023-07-02T11:21:34;12.15;;;4.30;;
59042;SDS011;44826;51.596;5.624;2023-07-02T11:26:38;12.02;;;4.80;;
59042;SDS011;44826;51.596;5.624;2023-07-02T11:29:07;9.93;;;4.63;;
59042;SDS011;44826;51.596;5.624;2023-07-02T11:31:37;10.75;;;4.57;;
59042;SDS011;44826;51.596;5.624;2023-07-02T11:34:10;11.65;;;4.75;;
59042;SDS011;44826;51.596;5.624;2023-07-02T11:36:37;13.68;;;4.68;;
59042;SDS011;44826;51.596;5.624;2023-07-02T11:39:02;10.70;;;4.72;;
59042;SDS011;44826;51.596;5.624;2023-07-02T11:41:53;10.38;;;4.43;;
59042;SDS011;44826;51.596;5.624;2023-07-02T11:44:18;12.40;;;4.78;;
59042;SDS011;44826;51.596;5.624;2023-07-02T11:46:47;9.50;;;4.60;;
59042;SDS011;44826;51.596;5.624;2023-07-02T11:49:15;10.70;;;4.85;;
59042;SDS011;44826;51.596;5.624;2023-07-02T11:51:41;12.23;;;4.53;;
59042;SDS011;44826;51.596;5.624;2023-07-02T11:54:13;12.65;;;4.22;;
59042;SDS011;44826;51.596;5.624;2023-07-02T11:56:41;11.45;;;4.65;;
59042;SDS011;44826;51.596;5.624;2023-07-02T11:59:07;14.30;;;4.90;;
59042;SDS011;44826;51.596;5.624;2023-07-02T12:01:36;12.07;;;4.60;;
59042;SDS011;44826;51.596;5.624;2023-07-02T12:04:02;11.50;;;4.82;;
59042;SDS011;44826;51.596;5.624;2023-07-02T12:06:27;11.25;;;4.82;;
59042;SDS011;44826;51.596;5.624;2023-07-02T12:08:52;11.80;;;5.18;;
59042;SDS011;44826;51.596;5.624;2023-07-02T12:11:18;10.10;;;4.70;;
59042;SDS011;44826;51.596;5.624;2023-07-02T12:13:43;10.57;;;4.47;;
59042;SDS011;44826;51.596;5.624;2023-07-02T12:16:08;12.50;;;4.78;;
59042;SDS011;44826;51.596;5.624;2023-07-02T12:18:34;10.38;;;4.57;;
59042;SDS011;44826;51.596;5.624;2023-07-02T12:20:59;12.27;;;4.82;;
59042;SDS011;44826;51.596;5.624;2023-07-02T12:23:24;11.52;;;4.35;;
59042;SDS011;44826;51.596;5.624;2023-07-02T12:25:50;9.50;;;4.60;;
59042;SDS011;44826;51.596;5.624;2023-07-02T12:28:15;10.32;;;4.60;;
59042;SDS011;44826;51.596;5.624;2023-07-02T12:30:40;13.27;;;4.93;;
59042;SDS011;44826;51.596;5.624;2023-07-02T12:33:06;11.35;;;4.72;;
59042;SDS011;44826;51.596;5.624;2023-07-02T12:35:31;11.48;;;4.13;;
59042;SDS011;44826;51.596;5.624;2023-07-02T12:37:56;10.73;;;4.03;;
59042;SDS011;44826;51.596;5.624;2023-07-02T12:40:22;11.07;;;3.95;;
59042;SDS011;44826;51.596;5.624;2023-07-02T12:42:47;12.55;;;4.20;;
59042;SDS011;44826;51.596;5.624;2023-07-02T12:45:14;7.25;;;3.80;;
59042;SDS011;44826;51.596;5.624;2023-07-02T12:47:40;8.05;;;3.90;;
59042;SDS011;44826;51.596;5.624;2023-07-02T12:50:07;8.38;;;3.60;;
59042;SDS011;44826;51.596;5.624;2023-07-02T12:52:33;7.95;;;3.35;;
59042;SDS011;44826;51.596;5.624;2023-07-02T12:55:02;5.90;;;3.10;;
59042;SDS011;44826;51.596;5.624;2023-07-02T12:57:27;9.32;;;3.03;;
59042;SDS011;44826;51.596;5.624;2023-07-02T12:59:53;7.03;;;3.20;;
59042;SDS011;44826;51.596;5.624;2023-07-02T13:02:19;8.98;;;3.33;;
59042;SDS011;44826;51.596;5.624;2023-07-02T13:04:44;7.60;;;2.92;;
59042;SDS011;44826;51.596;5.624;2023-07-02T13:07:10;8.63;;;3.35;;
59042;SDS011;44826;51.596;5.624;2023-07-02T13:09:35;7.78;;;3.42;;
59042;SDS011;44826;51.596;5.624;2023-07-02T13:12:00;7.32;;;2.80;;
59042;SDS011;44826;51.596;5.624;2023-07-02T13:14:25;6.75;;;3.10;;
59042;SDS011;44826;51.596;5.624;2023-07-02T13:16:51;7.18;;;2.85;;
59042;SDS011;44826;51.596;5.624;2023-07-02T13:19:16;6.90;;;2.80;;
59042;SDS011;44826;51.596;5.624;2023-07-02T13:21:41;5.45;;;2.53;;
59042;SDS011;44826;51.596;5.624;2023-07-02T13:24:07;6.88;;;3.10;;
59042;SDS011;44826;51.596;5.624;2023-07-02T13:26:32;6.65;;;2.88;;
59042;SDS011;44826;51.596;5.624;2023-07-02T13:28:57;6.35;;;2.80;;
59042;SDS011;44826;51.596;5.624;2023-07-02T13:31:23;7.95;;;2.75;;
59042;SDS011;44826;51.596;5.624;2023-07-02T13:33:48;5.93;;;2.70;;
59042;SDS011;44826;51.596;5.624;2023-07-02T13:36:15;6.97;;;2.75;;
59042;SDS011;44826;51.596;5.624;2023-07-02T13:38:40;5.03;;;2.53;;
59042;SDS011;44826;51.596;5.624;2023-07-02T13:41:05;5.68;;;2.45;;
59042;SDS011;44826;51.596;5.624;2023-07-02T13:43:31;5.80;;;2.45;;
59042;SDS011;44826;51.596;5.624;2023-07-02T13:45:56;5.38;;;2.30;;
59042;SDS011;44826;51.596;5.624;2023-07-02T13:48:22;7.15;;;2.50;;
59042;SDS011;44826;51.596;5.624;2023-07-02T13:50:48;4.55;;;2.30;;
59042;SDS011;44826;51.596;5.624;2023-07-02T13:53:13;5.28;;;2.25;;
59042;SDS011;44826;51.596;5.624;2023-07-02T13:55:38;6.65;;;2.47;;
59042;SDS011;44826;51.596;5.624;2023-07-02T13:58:04;5.55;;;2.60;;
59042;SDS011;44826;51.596;5.624;2023-07-02T14:00:29;5.03;;;2.50;;
59042;SDS011;44826;51.596;5.624;2023-07-02T14:02:55;6.32;;;2.40;;
59042;SDS011;44826;51.596;5.624;2023-07-02T14:05:21;5.72;;;2.50;;
59042;SDS011;44826;51.596;5.624;2023-07-02T14:07:46;6.97;;;2.58;;
59042;SDS011;44826;51.596;5.624;2023-07-02T14:10:12;8.32;;;2.40;;
59042;SDS011;44826;51.596;5.624;2023-07-02T14:12:39;6.65;;;2.30;;
59042;SDS011;44826;51.596;5.624;2023-07-02T14:15:05;7.88;;;2.38;;
59042;SDS011;44826;51.596;5.624;2023-07-02T14:17:31;8.25;;;2.90;;
59042;SDS011;44826;51.596;5.624;2023-07-02T14:19:56;7.35;;;2.55;;
59042;SDS011;44826;51.596;5.624;2023-07-02T14:22:21;7.78;;;2.90;;
59042;SDS011;44826;51.596;5.624;2023-07-02T14:24:47;7.28;;;2.72;;
59042;SDS011;44826;51.596;5.624;2023-07-02T14:27:12;7.43;;;2.63;;
59042;SDS011;44826;51.596;5.624;2023-07-02T14:29:37;6.50;;;2.53;;
59042;SDS011;44826;51.596;5.624;2023-07-02T14:32:03;7.15;;;2.80;;
59042;SDS011;44826;51.596;5.624;2023-07-02T14:34:28;7.22;;;3.00;;
59042;SDS011;44826;51.596;5.624;2023-07-02T14:36:55;7.95;;;3.03;;
59042;SDS011;44826;51.596;5.624;2023-07-02T14:39:20;8.00;;;2.67;;
59042;SDS011;44826;51.596;5.624;2023-07-02T14:41:46;6.95;;;3.10;;
59042;SDS011;44826;51.596;5.624;2023-07-02T14:44:11;7.43;;;2.72;;
59042;SDS011;44826;51.596;5.624;2023-07-02T14:46:38;7.80;;;2.83;;
59042;SDS011;44826;51.596;5.624;2023-07-02T14:49:04;7.70;;;2.85;;